Time;durP1;ratioP1;P1;durP2;ratioP2;P2;SDS_P1;SDS_P2;PMS_P1;PMS_P2;Temp;Humidity;BMP_temperature;BMP_pressure;BME280_temperature;BME280_humidity;BME280_pressure;Samples;Min_cycle;Max_cycle;Signal;HPM_P1;HPM_P2
2023/03/30 00:00:55;;;;;;;4.97;3.53;;;22.70;31.40;;;;;;5082330;28;20569;-54
2023/03/30 00:03:23;;;;;;;3.28;2.97;;;22.70;31.40;;;;;;5074977;28;20146;-51
2023/03/30 00:05:51;;;;;;;3.97;3.35;;;22.70;31.40;;;;;;5078349;28;20052;-53
2023/03/30 00:08:18;;;;;;;3.90;3.25;;;22.70;31.40;;;;;;5076541;28;20113;-50
2023/03/30 00:10:46;;;;;;;5.07;3.47;;;22.70;31.40;;;;;;5076584;28;20052;-53
2023/03/30 00:13:13;;;;;;;5.10;3.35;;;22.70;31.40;;;;;;5080754;28;20156;-49
2023/03/30 00:15:41;;;;;;;4.05;3.40;;;22.60;31.40;;;;;;5079782;28;20082;-49
2023/03/30 00:18:08;;;;;;;5.20;3.42;;;22.60;31.40;;;;;;5081209;28;20056;-50
2023/03/30 00:20:36;;;;;;;4.30;3.03;;;22.60;31.40;;;;;;5079168;28;20568;-55
2023/03/30 00:23:03;;;;;;;3.92;2.97;;;22.60;31.40;;;;;;5075382;28;20136;-52
2023/03/30 00:25:30;;;;;;;5.97;3.47;;;22.60;31.50;;;;;;5075084;28;20131;-55
2023/03/30 00:27:57;;;;;;;4.53;3.17;;;22.60;31.40;;;;;;5073455;28;20057;-50
2023/03/30 00:30:25;;;;;;;4.55;3.40;;;22.60;31.40;;;;;;5082043;28;20725;-54
2023/03/30 00:32:52;;;;;;;4.60;2.92;;;22.60;31.40;;;;;;5082622;28;20130;-54
2023/03/30 00:35:20;;;;;;;5.03;3.33;;;22.60;31.50;;;;;;5074573;28;20049;-50
2023/03/30 00:37:48;;;;;;;4.05;2.83;;;22.60;31.50;;;;;;5075934;28;20066;-54
2023/03/30 00:40:18;;;;;;;4.32;3.25;;;22.60;31.50;;;;;;5075466;28;20051;-50
2023/03/30 00:42:46;;;;;;;;;;;22.60;31.50;;;;;;5083312;28;20082;-54
2023/03/30 00:45:26;;;;;;;4.00;2.65;;;22.60;31.50;;;;;;5074061;28;19935;-54
2023/03/30 00:48:04;;;;;;;3.33;2.75;;;22.60;31.50;;;;;;5079433;28;20066;-50
2023/03/30 00:50:45;;;;;;;5.30;3.38;;;22.60;31.50;;;;;;5075736;28;20123;-53
2023/03/30 00:53:20;;;;;;;3.00;2.70;;;22.50;31.50;;;;;;5082766;28;20157;-48
2023/03/30 00:55:50;;;;;;;3.83;2.65;;;22.50;31.50;;;;;;5077658;28;20056;-51
2023/03/30 00:58:20;;;;;;;4.75;2.85;;;22.50;31.50;;;;;;5073293;28;20056;-50
2023/03/30 01:00:48;;;;;;;3.53;2.77;;;22.50;31.50;;;;;;5082469;28;20060;-52
2023/03/30 01:03:20;;;;;;;3.70;2.70;;;22.50;31.50;;;;;;5074769;28;20056;-51
2023/03/30 01:05:48;;;;;;;5.07;3.13;;;22.50;31.50;;;;;;5072450;28;20422;-54
2023/03/30 01:08:15;;;;;;;5.38;2.67;;;22.50;31.50;;;;;;5076012;28;20051;-53
2023/03/30 01:10:44;;;;;;;3.35;2.67;;;22.50;31.50;;;;;;5077385;28;20061;-55
2023/03/30 01:13:13;;;;;;;4.00;2.88;;;22.50;31.50;;;;;;5081715;28;20080;-53
2023/03/30 01:16:04;;;;;;;4.07;2.95;;;22.50;31.50;;;;;;5082488;28;20503;-52
2023/03/30 01:19:00;;;;;;;4.43;2.80;;;22.50;31.60;;;;;;5071793;28;20073;-54
2023/03/30 01:22:03;;;;;;;3.97;2.80;;;22.50;31.60;;;;;;5075814;28;20063;-55
2023/03/30 01:25:10;;;;;;;2.88;2.33;;;22.50;31.60;;;;;;5082656;28;20056;-50
2023/03/30 01:28:12;;;;;;;3.50;2.20;;;22.50;31.60;;;;;;5078290;28;20075;-49
2023/03/30 01:31:18;;;;;;;3.03;2.25;;;22.50;31.60;;;;;;5081800;28;20551;-49
2023/03/30 01:34:11;;;;;;;2.72;2.00;;;22.50;31.60;;;;;;5068187;28;20520;-58
2023/03/30 01:37:13;;;;;;;2.90;2.40;;;22.50;31.60;;;;;;5076606;28;20037;-54
2023/03/30 01:40:08;;;;;;;3.47;2.53;;;22.40;31.60;;;;;;5077916;28;20060;-54
2023/03/30 01:43:04;;;;;;;3.28;2.45;;;22.40;31.60;;;;;;5080375;28;20056;-52
2023/03/30 01:45:57;;;;;;;2.55;2.35;;;22.50;31.60;;;;;;5073939;28;20040;-49
2023/03/30 01:48:44;;;;;;;2.67;2.22;;;22.50;31.60;;;;;;5082588;28;20057;-51
2023/03/30 01:51:18;;;;;;;2.45;1.92;;;22.40;31.50;;;;;;5079773;28;20051;-51
2023/03/30 01:54:02;;;;;;;2.53;2.25;;;22.50;31.60;;;;;;5075943;28;20045;-55
2023/03/30 01:56:43;;;;;;;1.88;1.77;;;22.50;31.50;;;;;;5076784;28;20056;-55
2023/03/30 01:59:27;;;;;;;2.85;2.47;;;22.50;31.50;;;;;;5086945;28;20410;-51
2023/03/30 02:02:02;;;;;;;3.05;2.00;;;22.50;31.50;;;;;;5086472;28;20055;-51
2023/03/30 02:04:35;;;;;;;2.65;2.05;;;22.50;31.50;;;;;;5083405;28;20056;-54
2023/03/30 02:07:10;;;;;;;2.45;1.92;;;22.50;31.50;;;;;;5086282;28;20121;-52
2023/03/30 02:09:40;;;;;;;3.10;1.98;;;22.50;31.40;;;;;;5082729;28;20428;-50
2023/03/30 02:12:09;;;;;;;;;;;22.50;31.40;;;;;;5083885;28;20431;-52
2023/03/30 02:14:39;;;;;;;2.47;2.10;;;22.50;31.40;;;;;;5075301;28;19924;-55
2023/03/30 02:17:16;;;;;;;2.50;1.95;;;22.50;31.40;;;;;;5085906;28;20405;-55
2023/03/30 02:19:45;;;;;;;2.72;2.28;;;22.50;31.50;;;;;;5085402;28;20058;-53
2023/03/30 02:22:15;;;;;;;2.20;1.85;;;22.50;31.50;;;;;;5081839;28;20082;-51
2023/03/30 02:24:44;;;;;;;2.08;1.90;;;22.50;31.50;;;;;;5082726;28;20040;-52
2023/03/30 02:27:11;;;;;;;1.98;1.58;;;22.50;31.50;;;;;;5079898;28;20062;-54
2023/03/30 02:29:43;;;;;;;2.38;2.05;;;22.50;31.50;;;;;;5087344;28;20048;-55
2023/03/30 02:32:23;;;;;;;3.13;2.17;;;22.50;31.50;;;;;;5082379;28;20484;-50
2023/03/30 02:35:24;;;;;;;2.38;2.15;;;22.50;31.50;;;;;;5079042;28;20053;-53
2023/03/30 02:38:32;;;;;;;1.58;1.45;;;22.50;31.50;;;;;;5083877;28;20127;-55
2023/03/30 02:41:31;;;;;;;3.10;2.08;;;22.50;31.50;;;;;;5077254;28;20059;-54
2023/03/30 02:44:25;;;;;;;2.60;1.92;;;22.40;31.50;;;;;;5077053;28;20051;-56
2023/03/30 02:47:29;;;;;;;2.30;1.50;;;22.40;31.50;;;;;;5085436;28;20043;-55
2023/03/30 02:50:10;;;;;;;3.47;2.03;;;22.40;31.50;;;;;;5080900;28;20075;-53
2023/03/30 02:52:58;;;;;;;2.22;1.65;;;22.40;31.50;;;;;;5082346;28;20051;-55
2023/03/30 02:55:49;;;;;;;2.38;1.80;;;22.40;31.50;;;;;;5074141;28;20064;-55
2023/03/30 02:58:32;;;;;;;2.40;1.67;;;22.40;31.50;;;;;;5085043;28;20070;-54
2023/03/30 03:01:24;;;;;;;2.63;1.80;;;22.40;31.50;;;;;;5079454;28;20412;-52
2023/03/30 03:03:57;;;;;;;2.65;1.95;;;22.40;31.60;;;;;;5083585;28;20044;-54
2023/03/30 03:06:26;;;;;;;2.25;1.90;;;22.40;31.60;;;;;;5077372;28;20503;-51
2023/03/30 03:08:55;;;;;;;2.45;1.50;;;22.40;31.60;;;;;;5084763;28;20404;-51
2023/03/30 03:11:22;;;;;;;1.40;1.23;;;22.40;31.60;;;;;;5084017;28;20057;-48
2023/03/30 03:13:49;;;;;;;1.77;1.60;;;22.40;31.60;;;;;;5073893;28;20059;-55
2023/03/30 03:16:17;;;;;;;2.33;1.88;;;22.40;31.50;;;;;;5074796;28;20064;-55
2023/03/30 03:18:44;;;;;;;2.20;2.00;;;22.40;31.60;;;;;;5074776;28;20471;-54
2023/03/30 03:21:12;;;;;;;2.47;1.70;;;22.40;31.60;;;;;;5076244;28;20056;-55
2023/03/30 03:23:41;;;;;;;1.88;1.58;;;22.40;31.60;;;;;;5073395;28;20576;-54
2023/03/30 03:26:08;;;;;;;2.08;1.65;;;22.40;31.60;;;;;;5077359;28;20097;-55
2023/03/30 03:28:36;;;;;;;1.58;1.45;;;22.40;31.60;;;;;;5073372;28;20056;-51
2023/03/30 03:31:04;;;;;;;2.35;1.98;;;22.40;31.60;;;;;;5078779;28;20060;-54
2023/03/30 03:33:33;;;;;;;1.70;1.50;;;22.40;31.60;;;;;;5078153;28;20049;-50
2023/03/30 03:36:00;;;;;;;1.55;1.40;;;22.40;31.60;;;;;;5074477;28;20048;-55
2023/03/30 03:38:27;;;;;;;2.92;1.42;;;22.40;31.60;;;;;;5077855;28;20055;-54
2023/03/30 03:40:57;;;;;;;1.30;1.20;;;22.40;31.60;;;;;;5081289;28;20056;-53
2023/03/30 03:43:25;;;;;;;1.60;1.50;;;22.40;31.60;;;;;;5080292;28;20048;-55
2023/03/30 03:45:52;;;;;;;2.63;1.58;;;22.40;31.60;;;;;;5086493;28;20084;-54
2023/03/30 03:48:21;;;;;;;1.50;1.40;;;22.40;31.60;;;;;;5084031;28;20131;-51
2023/03/30 03:50:54;;;;;;;2.55;1.80;;;22.30;31.50;;;;;;5076122;28;20071;-55
2023/03/30 03:53:23;;;;;;;2.78;1.70;;;22.40;31.60;;;;;;5077511;28;20599;-54
2023/03/30 03:55:50;;;;;;;1.45;1.35;;;22.40;31.60;;;;;;5081210;28;20055;-55
2023/03/30 03:58:18;;;;;;;1.50;1.40;;;22.40;31.60;;;;;;5075858;28;20080;-55
2023/03/30 04:00:46;;;;;;;1.45;1.35;;;22.40;31.60;;;;;;5081373;28;20503;-53
2023/03/30 04:03:13;;;;;;;1.40;1.30;;;22.40;31.50;;;;;;5078096;28;20048;-56
2023/03/30 04:05:40;;;;;;;1.70;1.40;;;22.40;31.50;;;;;;5072687;28;20055;-51
2023/03/30 04:08:09;;;;;;;1.58;1.48;;;22.40;31.50;;;;;;5077427;28;20121;-55
2023/03/30 04:10:38;;;;;;;1.50;1.25;;;22.40;31.50;;;;;;5074585;28;20151;-52
2023/03/30 04:13:06;;;;;;;1.80;1.42;;;22.40;31.50;;;;;;5075494;28;20052;-53
2023/03/30 04:15:34;;;;;;;1.42;1.08;;;22.40;31.50;;;;;;5077594;28;20574;-52
2023/03/30 04:18:01;;;;;;;2.17;1.45;;;22.40;31.40;;;;;;5072793;28;20509;-53
2023/03/30 04:20:29;;;;;;;1.27;1.15;;;22.40;31.40;;;;;;5074617;28;20063;-55
2023/03/30 04:22:56;;;;;;;2.15;1.52;;;22.40;31.40;;;;;;5082761;28;20056;-55
2023/03/30 04:25:27;;;;;;;2.60;1.40;;;22.40;31.40;;;;;;5084584;28;20048;-52
2023/03/30 04:27:56;;;;;;;1.40;1.30;;;22.40;31.40;;;;;;5082086;28;20048;-52
2023/03/30 04:30:23;;;;;;;1.52;1.35;;;22.40;31.40;;;;;;5076280;28;20084;-55
2023/03/30 04:33:01;;;;;;;1.45;1.23;;;22.40;31.40;;;;;;5076323;28;20433;-55
2023/03/30 04:35:33;;;;;;;1.48;1.27;;;22.40;31.40;;;;;;5073292;28;20138;-51
2023/03/30 04:38:01;;;;;;;1.42;1.30;;;22.40;31.30;;;;;;5081713;28;20071;-54
2023/03/30 04:40:28;;;;;;;1.58;1.30;;;22.40;31.20;;;;;;5077563;28;20121;-54
2023/03/30 04:43:01;;;;;;;1.85;1.50;;;22.40;31.10;;;;;;5076602;28;20512;-55
2023/03/30 04:45:29;;;;;;;1.60;1.50;;;22.30;31.00;;;;;;5072201;28;20073;-54
2023/03/30 04:47:57;;;;;;;1.50;1.40;;;22.30;31.10;;;;;;5077480;28;20133;-53
2023/03/30 04:50:24;;;;;;;1.40;1.30;;;22.30;31.00;;;;;;5074475;28;20052;-55
2023/03/30 04:52:52;;;;;;;2.05;1.60;;;22.30;31.10;;;;;;5077748;28;20044;-53
2023/03/30 04:55:19;;;;;;;2.75;1.83;;;22.30;31.10;;;;;;5078134;28;20047;-57
2023/03/30 04:57:46;;;;;;;1.50;1.40;;;22.30;31.10;;;;;;5077908;28;20412;-52
2023/03/30 05:00:13;;;;;;;2.17;1.70;;;22.30;31.10;;;;;;5079273;28;20143;-55
2023/03/30 05:02:40;;;;;;;1.42;1.17;;;22.30;31.00;;;;;;5073915;28;20079;-54
2023/03/30 05:05:08;;;;;;;2.10;1.90;;;22.30;31.00;;;;;;5079663;28;20139;-51
2023/03/30 05:07:35;;;;;;;2.53;2.03;;;22.30;31.00;;;;;;5072263;28;20472;-54
2023/03/30 05:10:02;;;;;;;3.35;1.63;;;22.30;30.90;;;;;;5074588;28;20140;-52
2023/03/30 05:12:30;;;;;;;2.65;1.50;;;22.30;30.90;;;;;;5079011;28;20496;-53
2023/03/30 05:14:57;;;;;;;2.10;1.65;;;22.30;30.80;;;;;;5079294;28;20040;-54
2023/03/30 05:17:24;;;;;;;2.05;1.50;;;22.40;30.90;;;;;;5080413;28;20047;-55
2023/03/30 05:19:52;;;;;;;3.22;1.83;;;22.40;30.80;;;;;;5076776;28;20047;-55
2023/03/30 05:22:19;;;;;;;1.60;1.48;;;22.40;30.80;;;;;;5080102;28;20773;-52
2023/03/30 05:24:46;;;;;;;2.00;1.80;;;22.40;30.70;;;;;;5075743;28;20562;-54
2023/03/30 05:27:13;;;;;;;2.38;1.98;;;22.40;30.80;;;;;;5073304;28;20050;-49
2023/03/30 05:29:40;;;;;;;1.67;1.55;;;22.40;30.80;;;;;;5076036;28;20588;-52
2023/03/30 05:32:08;;;;;;;2.40;1.73;;;22.40;30.80;;;;;;5078315;28;20044;-53
2023/03/30 05:34:35;;;;;;;2.47;1.98;;;22.50;30.90;;;;;;5078053;28;20460;-52
2023/03/30 05:37:02;;;;;;;2.17;1.73;;;22.50;30.90;;;;;;5074814;28;20048;-54
2023/03/30 05:39:30;;;;;;;2.10;1.60;;;22.50;30.90;;;;;;5074046;28;20051;-52
2023/03/30 05:41:57;;;;;;;1.70;1.45;;;22.60;30.90;;;;;;5076096;28;20122;-55
2023/03/30 05:44:24;;;;;;;2.78;1.55;;;22.60;30.80;;;;;;5077522;28;20488;-51
2023/03/30 05:46:51;;;;;;;3.20;1.92;;;22.60;30.80;;;;;;5077203;28;20474;-54
2023/03/30 05:49:19;;;;;;;2.58;2.00;;;22.70;30.90;;;;;;5073115;28;20059;-53
2023/03/30 05:51:47;;;;;;;2.95;1.67;;;22.70;31.40;;;;;;5073399;28;20051;-55
2023/03/30 05:54:14;;;;;;;2.10;1.90;;;22.70;30.80;;;;;;5074703;28;20056;-53
2023/03/30 05:56:41;;;;;;;2.67;1.75;;;22.80;30.90;;;;;;5072723;28;20212;-55
2023/03/30 05:59:09;;;;;;;3.90;2.33;;;22.80;30.90;;;;;;5075914;28;20085;-52
2023/03/30 06:01:37;;;;;;;3.75;2.42;;;22.90;30.90;;;;;;5074664;28;20415;-51
2023/03/30 06:04:05;;;;;;;2.35;2.05;;;22.90;30.80;;;;;;5073125;28;20047;-55
2023/03/30 06:06:32;;;;;;;2.42;1.70;;;22.90;30.80;;;;;;5072847;28;20056;-55
2023/03/30 06:08:59;;;;;;;6.35;2.05;;;23.00;31.50;;;;;;5072792;28;20074;-56
2023/03/30 06:11:27;;;;;;;5.07;1.90;;;23.00;31.10;;;;;;5075599;28;20052;-55
2023/03/30 06:13:54;;;;;;;4.65;2.13;;;23.10;31.20;;;;;;5073004;28;20044;-55
2023/03/30 06:16:22;;;;;;;2.60;2.17;;;23.10;31.20;;;;;;5074944;28;20127;-54
2023/03/30 06:18:49;;;;;;;4.50;2.00;;;23.10;31.00;;;;;;5077239;28;20102;-56
2023/03/30 06:21:17;;;;;;;4.22;2.80;;;23.20;31.10;;;;;;5074529;28;20052;-56
2023/03/30 06:23:44;;;;;;;3.13;1.90;;;23.30;31.00;;;;;;5076843;28;20059;-55
2023/03/30 06:26:11;;;;;;;4.80;2.20;;;23.30;31.00;;;;;;5076271;28;20510;-53
2023/03/30 06:28:40;;;;;;;4.70;2.25;;;23.40;31.20;;;;;;5077121;28;20063;-56
2023/03/30 06:31:09;;;;;;;4.45;2.33;;;23.40;31.30;;;;;;5078255;28;20064;-53
2023/03/30 06:33:36;;;;;;;5.78;2.85;;;23.50;31.40;;;;;;5080171;28;20060;-56
2023/03/30 06:36:12;;;;;;;2.92;2.17;;;23.60;31.50;;;;;;5079303;28;20043;-56
2023/03/30 06:38:42;;;;;;;4.22;2.15;;;23.60;31.40;;;;;;5076916;28;20060;-55
2023/03/30 06:41:11;;;;;;;6.05;2.58;;;23.70;31.40;;;;;;5079058;28;20051;-55
2023/03/30 06:43:39;;;;;;;5.45;2.90;;;23.70;31.10;;;;;;5081008;28;20508;-55
2023/03/30 06:46:11;;;;;;;4.90;2.60;;;23.80;31.10;;;;;;5078972;28;20142;-55
2023/03/30 06:48:38;;;;;;;6.47;2.45;;;23.80;31.00;;;;;;5079353;28;20067;-54
2023/03/30 06:51:05;;;;;;;4.05;2.30;;;23.90;30.90;;;;;;5078462;28;20139;-54
2023/03/30 06:53:33;;;;;;;5.05;2.17;;;23.90;30.80;;;;;;5073535;28;20139;-57
2023/03/30 06:56:00;;;;;;;3.75;2.22;;;24.00;30.70;;;;;;5076635;28;20079;-55
2023/03/30 06:58:28;;;;;;;3.65;2.50;;;24.00;30.60;;;;;;5078303;28;20063;-58
2023/03/30 07:00:56;;;;;;;5.03;2.70;;;24.10;30.60;;;;;;5078314;28;20048;-58
2023/03/30 07:03:25;;;;;;;5.68;2.53;;;24.10;30.60;;;;;;5080587;28;20079;-57
2023/03/30 07:05:52;;;;;;;3.83;2.40;;;24.10;30.60;;;;;;5079180;28;20048;-58
2023/03/30 07:08:20;;;;;;;3.13;2.25;;;24.20;30.80;;;;;;5076612;28;20055;-57
2023/03/30 07:10:47;;;;;;;10.13;2.60;;;24.30;30.90;;;;;;5078316;28;20051;-55
2023/03/30 07:13:16;;;;;;;5.80;2.60;;;24.30;31.00;;;;;;5077613;28;20133;-57
2023/03/30 07:15:45;;;;;;;3.75;2.33;;;24.40;31.00;;;;;;5081852;28;20492;-58
2023/03/30 07:18:13;;;;;;;3.25;2.15;;;24.40;31.00;;;;;;5079774;28;20508;-57
2023/03/30 07:20:40;;;;;;;4.57;2.47;;;24.50;31.10;;;;;;5079926;28;20082;-58
2023/03/30 07:23:07;;;;;;;6.55;2.38;;;24.50;31.00;;;;;;5081579;28;20066;-58
2023/03/30 07:25:35;;;;;;;4.25;2.25;;;24.50;31.00;;;;;;5079619;28;20709;-56
2023/03/30 07:28:05;;;;;;;7.05;2.72;;;24.60;30.90;;;;;;5076730;28;20092;-57
2023/03/30 07:30:33;;;;;;;8.80;2.60;;;24.70;30.90;;;;;;5076133;28;20559;-56
2023/03/30 07:33:00;;;;;;;7.18;2.40;;;24.70;30.80;;;;;;5077544;28;20060;-58
2023/03/30 07:35:28;;;;;;;4.82;1.85;;;24.70;30.70;;;;;;5077490;28;20500;-57
2023/03/30 07:37:55;;;;;;;3.60;1.88;;;24.70;30.60;;;;;;5078225;28;20089;-57
2023/03/30 07:40:29;;;;;;;5.70;2.00;;;24.80;30.70;;;;;;5077686;28;20059;-56
2023/03/30 07:42:57;;;;;;;4.60;1.92;;;24.80;30.70;;;;;;5074874;28;20067;-55
2023/03/30 07:45:25;;;;;;;4.35;2.38;;;24.90;30.70;;;;;;5078779;28;20052;-56
2023/03/30 07:47:52;;;;;;;7.95;2.28;;;24.90;30.60;;;;;;5077768;28;20787;-53
2023/03/30 07:50:20;;;;;;;5.85;2.55;;;24.90;30.50;;;;;;5057641;28;20523;-57
2023/03/30 07:52:49;;;;;;;4.90;1.92;;;25.00;30.70;;;;;;5078850;28;20137;-56
2023/03/30 07:55:16;;;;;;;4.68;2.22;;;25.00;30.70;;;;;;5075558;28;20048;-57
2023/03/30 07:57:43;;;;;;;3.33;1.83;;;25.00;30.70;;;;;;5074348;28;20099;-57
2023/03/30 08:00:13;;;;;;;3.40;2.22;;;25.00;30.80;;;;;;5075005;28;20083;-58
2023/03/30 08:02:41;;;;;;;3.80;2.50;;;25.10;30.70;;;;;;5076429;28;20059;-58
2023/03/30 08:05:08;;;;;;;5.10;2.22;;;25.10;30.70;;;;;;5076338;28;20048;-58
2023/03/30 08:07:36;;;;;;;4.28;2.08;;;25.10;30.50;;;;;;5079356;28;20504;-58
2023/03/30 08:10:04;;;;;;;6.65;2.58;;;25.20;30.30;;;;;;5074597;28;20121;-58
2023/03/30 08:12:31;;;;;;;3.83;1.90;;;25.30;30.20;;;;;;5074110;28;20047;-58
2023/03/30 08:14:59;;;;;;;4.38;2.28;;;25.40;30.20;;;;;;5075980;28;20048;-56
2023/03/30 08:17:26;;;;;;;3.97;2.58;;;25.40;30.20;;;;;;5073559;28;20381;-55
2023/03/30 08:19:55;;;;;;;3.78;2.28;;;25.40;30.70;;;;;;5076116;28;20083;-57
2023/03/30 08:22:23;;;;;;;5.30;1.95;;;25.50;30.20;;;;;;5074277;28;20048;-57
2023/03/30 08:24:50;;;;;;;4.13;2.13;;;25.50;30.10;;;;;;5075859;28;20105;-58
2023/03/30 08:27:17;;;;;;;3.15;2.22;;;25.60;30.00;;;;;;5073016;28;20134;-58
2023/03/30 08:29:44;;;;;;;3.90;2.33;;;25.70;30.10;;;;;;5074301;28;20496;-57
2023/03/30 08:32:12;;;;;;;6.95;2.33;;;25.70;30.20;;;;;;5074853;28;20062;-54
2023/03/30 08:34:39;;;;;;;3.63;2.22;;;25.70;30.30;;;;;;5078006;28;20393;-58
2023/03/30 08:37:06;;;;;;;4.65;2.05;;;25.80;30.40;;;;;;5075604;28;20048;-57
2023/03/30 08:39:33;;;;;;;3.47;1.92;;;25.80;30.30;;;;;;5072852;28;20138;-57
2023/03/30 08:42:40;;;;;;;5.75;2.58;;;25.80;30.40;;;;;;5076951;28;20140;-57
2023/03/30 08:45:10;;;;;;;4.43;2.05;;;25.80;30.40;;;;;;5075969;28;20053;-58
2023/03/30 08:47:41;;;;;;;3.63;2.00;;;25.80;30.10;;;;;;5076485;28;20048;-57
2023/03/30 08:50:31;;;;;;;3.25;2.22;;;25.90;30.50;;;;;;5076724;28;20052;-58
2023/03/30 08:52:58;;;;;;;4.78;1.63;;;25.90;30.40;;;;;;5078264;28;20186;-58
2023/03/30 08:55:47;;;;;;;2.70;1.85;;;26.00;30.20;;;;;;5077122;28;20051;-57
2023/03/30 08:58:54;;;;;;;3.70;1.90;;;26.00;30.30;;;;;;5077061;28;20052;-54
2023/03/30 09:01:37;;;;;;;4.00;1.98;;;26.00;30.50;;;;;;5072832;28;20055;-56
2023/03/30 09:04:30;;;;;;;4.75;2.17;;;26.10;30.30;;;;;;5073036;28;20386;-58
2023/03/30 09:07:10;;;;;;;3.33;2.03;;;26.10;30.30;;;;;;5074214;28;20052;-56
2023/03/30 09:09:42;;;;;;;3.88;1.80;;;26.10;30.40;;;;;;5075596;28;20371;-60
2023/03/30 09:12:36;;;;;;;4.72;2.00;;;26.10;30.40;;;;;;5074229;28;20058;-58
2023/03/30 09:15:25;;;;;;;4.63;2.25;;;26.10;30.40;;;;;;5074559;28;20036;-58
2023/03/30 09:18:14;;;;;;;3.92;2.22;;;26.10;30.20;;;;;;5072161;28;20052;-57
2023/03/30 09:20:45;;;;;;;4.00;1.98;;;26.10;30.40;;;;;;5074455;28;20238;-56
2023/03/30 09:23:16;;;;;;;2.85;2.15;;;26.10;30.40;;;;;;5078185;28;20040;-56
2023/03/30 09:26:01;;;;;;;4.03;2.05;;;26.10;30.50;;;;;;5074748;28;20048;-57
2023/03/30 09:28:48;;;;;;;4.82;2.40;;;26.10;30.60;;;;;;5077325;28;20645;-57
2023/03/30 09:31:43;;;;;;;5.03;2.83;;;26.10;31.40;;;;;;5077384;28;20614;-56
2023/03/30 09:34:26;;;;;;;4.47;2.45;;;26.10;30.50;;;;;;5075489;28;20417;-57
2023/03/30 09:37:03;;;;;;;2.45;1.75;;;26.10;30.50;;;;;;5078095;28;20083;-56
2023/03/30 09:39:35;;;;;;;2.97;1.65;;;26.10;30.50;;;;;;5073698;28;20084;-57
2023/03/30 09:42:23;;;;;;;6.18;2.35;;;26.20;30.50;;;;;;5077030;28;20072;-57
2023/03/30 09:45:10;;;;;;;3.55;1.85;;;26.20;30.40;;;;;;5077544;28;20067;-58
2023/03/30 09:47:38;;;;;;;5.20;2.60;;;26.30;30.40;;;;;;5075542;28;20053;-57
2023/03/30 09:50:16;;;;;;;3.60;2.17;;;26.30;30.40;;;;;;5076571;28;20048;-58
2023/03/30 09:53:01;;;;;;;4.07;2.10;;;26.40;30.40;;;;;;5075747;28;20134;-57
2023/03/30 09:55:33;;;;;;;10.43;2.70;;;26.40;30.40;;;;;;5078591;28;20054;-57
2023/03/30 09:58:28;;;;;;;4.18;1.88;;;26.50;30.50;;;;;;5075108;28;20385;-58
2023/03/30 10:01:17;;;;;;;2.95;2.03;;;26.50;30.30;;;;;;5077770;28;20048;-57
2023/03/30 10:04:04;;;;;;;5.32;1.80;;;26.50;30.20;;;;;;5074815;28;20055;-59
2023/03/30 10:06:37;;;;;;;4.75;1.80;;;26.50;30.20;;;;;;5078644;28;20071;-58
2023/03/30 10:09:10;;;;;;;3.42;1.60;;;26.60;30.30;;;;;;5078523;28;20059;-59
2023/03/30 10:11:43;;;;;;;3.13;1.80;;;26.50;30.30;;;;;;5080370;28;20049;-58
2023/03/30 10:14:32;;;;;;;4.25;2.00;;;26.50;30.30;;;;;;5080367;28;20134;-58
2023/03/30 10:17:01;;;;;;;3.65;1.90;;;26.40;30.20;;;;;;5080353;28;20465;-56
2023/03/30 10:19:29;;;;;;;4.00;1.65;;;26.40;30.30;;;;;;5080537;28;20052;-57
2023/03/30 10:22:03;;;;;;;10.05;2.40;;;26.40;30.20;;;;;;5080677;28;20044;-58
2023/03/30 10:24:32;;;;;;;3.13;1.98;;;26.40;30.20;;;;;;5079225;28;20388;-55
2023/03/30 10:27:10;;;;;;;3.40;2.05;;;26.40;30.20;;;;;;5080646;28;20072;-58
2023/03/30 10:29:43;;;;;;;2.53;1.55;;;26.40;30.20;;;;;;5077479;28;20063;-58
2023/03/30 10:32:17;;;;;;;6.75;2.28;;;26.40;30.20;;;;;;5084113;28;20044;-58
2023/03/30 10:34:51;;;;;;;3.72;1.60;;;26.30;29.90;;;;;;5079070;28;20113;-58
2023/03/30 10:37:27;;;;;;;3.95;1.63;;;26.30;30.00;;;;;;5077215;28;20044;-59
2023/03/30 10:39:56;;;;;;;1.75;1.35;;;26.20;30.00;;;;;;5076921;28;21254;-58
2023/03/30 10:42:27;;;;;;;3.50;1.67;;;26.10;30.00;;;;;;5076345;28;20135;-56
2023/03/30 10:45:00;;;;;;;2.78;1.63;;;26.10;30.20;;;;;;5080454;28;20166;-57
2023/03/30 10:47:57;;;;;;;4.18;1.77;;;26.10;30.40;;;;;;5079266;28;20051;-54
2023/03/30 10:50:46;;;;;;;5.28;2.00;;;26.00;30.40;;;;;;5076839;28;20044;-55
2023/03/30 10:53:39;;;;;;;4.50;1.70;;;26.10;30.50;;;;;;5079277;28;20052;-54
2023/03/30 10:56:35;;;;;;;3.28;1.33;;;26.10;30.40;;;;;;5075221;28;20079;-53
2023/03/30 10:59:40;;;;;;;7.03;1.85;;;26.10;30.50;;;;;;5072329;28;20125;-54
2023/03/30 11:02:41;;;;;;;5.00;1.58;;;26.10;30.60;;;;;;5072890;28;20052;-54
2023/03/30 11:05:29;;;;;;;2.65;1.52;;;26.10;30.70;;;;;;5075304;28;20052;-53
2023/03/30 11:08:15;;;;;;;2.25;1.08;;;26.10;30.60;;;;;;5073874;28;20044;-54
2023/03/30 11:10:53;;;;;;;2.47;1.17;;;26.20;30.80;;;;;;5080064;28;20146;-55
2023/03/30 11:13:24;;;;;;;2.22;1.40;;;26.20;30.80;;;;;;5079126;28;20508;-49
2023/03/30 11:16:19;;;;;;;4.80;1.98;;;26.20;30.90;;;;;;5079772;28;20048;-53
2023/03/30 11:19:04;;;;;;;5.45;1.70;;;26.20;31.00;;;;;;5079418;28;20492;-56
2023/03/30 11:21:59;;;;;;;4.55;1.35;;;26.20;30.90;;;;;;5078799;28;20506;-55
2023/03/30 11:24:27;;;;;;;1.95;1.27;;;26.20;31.00;;;;;;5076796;28;20052;-54
2023/03/30 11:27:17;;;;;;;4.05;1.40;;;26.20;31.20;;;;;;5076080;28;20045;-54
2023/03/30 11:30:08;;;;;;;2.65;1.75;;;26.30;31.40;;;;;;5077685;28;20044;-55
2023/03/30 11:33:00;;;;;;;3.25;1.30;;;26.30;31.50;;;;;;5079121;28;20052;-55
2023/03/30 11:35:44;;;;;;;3.38;1.63;;;26.30;31.50;;;;;;5080426;28;20040;-54
2023/03/30 11:38:40;;;;;;;4.10;1.42;;;26.30;31.50;;;;;;5079006;28;20052;-56
2023/03/30 11:41:39;;;;;;;4.43;1.30;;;26.40;31.60;;;;;;5071725;28;20052;-55
2023/03/30 11:44:09;;;;;;;2.38;1.42;;;26.40;31.60;;;;;;5075688;28;20079;-56
2023/03/30 11:47:04;;;;;;;5.00;1.52;;;26.40;31.40;;;;;;5075637;28;20079;-54
2023/03/30 11:49:45;;;;;;;5.00;1.85;;;26.40;31.00;;;;;;5077892;28;20147;-56
2023/03/30 11:52:35;;;;;;;3.67;1.45;;;26.40;31.00;;;;;;5076484;28;20055;-60
2023/03/30 11:55:37;;;;;;;3.35;1.50;;;26.40;31.30;;;;;;5075072;28;20051;-64
2023/03/30 11:58:23;;;;;;;2.97;1.02;;;26.40;31.00;;;;;;5076602;28;20052;-61
2023/03/30 12:01:15;;;;;;;4.13;1.20;;;26.30;30.90;;;;;;5075918;28;20052;-59
2023/03/30 12:03:47;;;;;;;2.92;1.23;;;26.20;31.00;;;;;;5073722;28;20274;-62
2023/03/30 12:06:33;;;;;;;2.83;1.27;;;26.20;31.00;;;;;;5075401;28;20052;-60
2023/03/30 12:09:37;;;;;;;4.40;1.80;;;26.20;31.10;;;;;;5076199;28;20047;-58
2023/03/30 12:12:15;;;;;;;2.45;1.60;;;26.20;31.20;;;;;;5076911;28;20131;-57
2023/03/30 12:15:02;;;;;;;4.10;1.92;;;26.20;31.50;;;;;;5078798;28;20048;-58
2023/03/30 12:17:40;;;;;;;3.85;1.38;;;26.30;31.60;;;;;;5078117;28;20056;-58
2023/03/30 12:20:39;;;;;;;5.05;1.50;;;26.30;31.60;;;;;;5075876;28;20147;-56
2023/03/30 12:23:43;;;;;;;3.90;1.38;;;26.30;31.80;;;;;;5076626;28;20054;-56
2023/03/30 12:26:29;;;;;;;3.47;1.30;;;26.40;31.90;;;;;;5064244;28;20048;-59
2023/03/30 12:29:15;;;;;;;4.75;1.40;;;26.40;31.90;;;;;;5079443;28;20056;-59
2023/03/30 12:32:03;;;;;;;5.45;1.33;;;26.40;31.70;;;;;;5077749;28;20059;-58
2023/03/30 12:34:37;;;;;;;10.35;1.80;;;26.40;31.60;;;;;;5077111;28;20055;-57
2023/03/30 12:37:21;;;;;;;4.45;1.52;;;26.50;31.80;;;;;;5077696;28;20048;-55
2023/03/30 12:39:56;;;;;;;5.70;1.70;;;26.50;31.70;;;;;;5077483;28;20530;-54
2023/03/30 12:42:38;;;;;;;2.08;1.30;;;26.50;31.60;;;;;;5077332;28;20479;-59
2023/03/30 12:45:27;;;;;;;1.58;1.02;;;26.50;31.60;;;;;;5076221;28;22017;-57
2023/03/30 12:48:35;;;;;;;3.58;1.88;;;26.50;31.70;;;;;;5074711;28;20110;-58
2023/03/30 12:51:18;;;;;;;3.88;1.63;;;26.50;31.60;;;;;;5071949;28;20046;-56
2023/03/30 12:54:24;;;;;;;3.15;1.50;;;26.50;31.80;;;;;;5072715;28;20483;-59
2023/03/30 12:57:21;;;;;;;4.03;1.42;;;26.50;31.80;;;;;;5075941;28;20389;-59
2023/03/30 13:00:20;;;;;;;4.35;1.63;;;26.60;32.20;;;;;;5078288;28;20578;-55
2023/03/30 13:03:24;;;;;;;4.22;1.85;;;26.60;32.00;;;;;;5077961;28;20044;-59
2023/03/30 13:05:54;;;;;;;2.40;1.48;;;26.70;31.90;;;;;;5074863;28;21246;-53
2023/03/30 13:08:36;;;;;;;2.55;1.48;;;26.70;31.90;;;;;;5072979;28;20048;-59
2023/03/30 13:11:20;;;;;;;3.10;1.30;;;26.80;31.90;;;;;;5073537;28;21614;-58
2023/03/30 13:13:55;;;;;;;6.20;1.55;;;26.80;31.80;;;;;;5074864;28;20135;-59
2023/03/30 13:17:01;;;;;;;3.97;1.27;;;26.80;31.80;;;;;;5072124;28;20080;-60
2023/03/30 13:19:49;;;;;;;3.15;1.25;;;26.90;31.70;;;;;;5075203;28;20762;-60
2023/03/30 13:22:27;;;;;;;4.00;1.70;;;26.90;31.60;;;;;;5076042;28;20556;-59
2023/03/30 13:25:00;;;;;;;4.32;1.50;;;26.90;31.80;;;;;;5071536;28;20064;-60
2023/03/30 13:27:32;;;;;;;3.88;1.52;;;26.90;31.90;;;;;;5074475;28;20044;-57
2023/03/30 13:30:12;;;;;;;4.70;1.27;;;26.90;31.90;;;;;;5077353;28;20142;-60
2023/03/30 13:33:10;;;;;;;2.63;1.90;;;27.00;32.10;;;;;;5074203;28;20053;-59